Time;durP1;ratioP1;P1;durP2;ratioP2;P2;SDS_P1;SDS_P2;PMS_P1;PMS_P2;Temp;Humidity;BMP_temperature;BMP_pressure;BME280_temperature;BME280_humidity;BME280_pressure;Samples;Min_cycle;Max_cycle;Signal;HPM_P1;HPM_P2
2022/07/20 00:01:01;;;;;;;6.67;2.90;;;;;;;27.18;31.43;101073.31;5232130;28;20033;-72
2022/07/20 00:03:33;;;;;;;7.40;2.88;;;;;;;27.08;31.40;101078.41;5232655;28;20017;-73
2022/07/20 00:06:04;;;;;;;6.30;3.37;;;;;;;27.07;31.75;101082.16;5233052;28;20029;-75
2022/07/20 00:11:25;;;;;;;7.70;3.00;;;;;;;26.90;31.85;101080.19;5232089;28;20487;-73
2022/07/20 00:14:00;;;;;;;7.17;3.17;;;;;;;26.91;31.88;101081.81;5232622;28;20021;-71
2022/07/20 00:16:34;;;;;;;6.63;3.03;;;;;;;26.79;32.02;101077.47;5233847;28;20060;-74
2022/07/20 00:19:05;;;;;;;5.03;2.90;;;;;;;26.64;32.47;101070.69;5231830;28;20021;-73
2022/07/20 00:21:36;;;;;;;5.67;2.73;;;;;;;26.72;32.22;101072.22;5232621;28;20091;-70
2022/07/20 00:24:08;;;;;;;6.47;3.27;;;;;;;26.72;32.02;101071.38;5231482;28;20103;-70
2022/07/20 00:26:39;;;;;;;7.90;2.70;;;;;;;26.63;32.53;101063.66;5230856;28;20174;-70
2022/07/20 00:29:10;;;;;;;8.20;3.00;;;;;;;26.62;32.59;101070.06;5232959;28;20490;-72
2022/07/20 00:31:42;;;;;;;5.33;3.10;;;;;;;26.51;33.00;101081.63;5230404;28;20057;-73
2022/07/20 00:34:13;;;;;;;6.23;2.77;;;;;;;26.54;34.02;101083.84;5233198;28;20037;-72
2022/07/20 00:36:44;;;;;;;5.20;2.70;;;;;;;26.24;34.26;101156.34;5233280;28;20047;-72
2022/07/20 00:39:16;;;;;;;8.93;2.70;;;;;;;26.38;32.28;101104.09;5232146;28;20029;-72
2022/07/20 00:41:47;;;;;;;5.97;2.77;;;;;;;26.55;31.65;101087.34;5229852;28;20025;-73
2022/07/20 00:44:18;;;;;;;6.33;3.00;;;;;;;26.60;31.68;101092.88;5233318;28;20060;-72
2022/07/20 00:46:53;;;;;;;6.67;2.97;;;;;;;26.59;31.63;101094.72;5232279;28;20034;-73
2022/07/20 00:49:25;;;;;;;5.28;3.08;;;;;;;26.50;32.43;101114.09;5232906;28;20041;-73
2022/07/20 00:51:56;;;;;;;8.50;2.97;;;;;;;26.46;32.35;101137.09;5228433;28;20040;-73
2022/07/20 00:54:28;;;;;;;4.33;2.80;;;;;;;26.42;32.31;101116.03;5232192;28;20033;-73
2022/07/20 00:56:59;;;;;;;6.47;3.20;;;;;;;26.42;32.25;101107.16;5231436;28;20116;-73
2022/07/20 00:59:31;;;;;;;5.33;3.13;;;;;;;26.37;32.94;101150.81;5232708;28;20060;-73
2022/07/20 01:02:02;;;;;;;5.00;3.10;;;;;;;26.28;32.69;101103.81;5232790;28;20033;-73
2022/07/20 01:04:33;;;;;;;6.87;3.30;;;;;;;26.22;32.41;101115.50;5233148;28;20029;-73
2022/07/20 01:07:06;;;;;;;10.50;3.37;;;;;;;26.16;33.04;101114.50;5234477;28;20067;-73
2022/07/20 01:09:37;;;;;;;9.45;3.35;;;;;;;26.14;32.51;101102.38;5236529;28;20029;-73
2022/07/20 01:12:10;;;;;;;6.57;3.73;;;;;;;26.12;32.94;101113.34;5234714;28;20042;-73
2022/07/20 01:14:41;;;;;;;;;;;;;;;26.72;31.59;101112.53;5235471;28;20643;-73
2022/07/20 01:17:12;;;;;;;6.45;3.25;;;;;;;26.01;33.56;101105.22;5236535;28;20004;-73
2022/07/20 01:19:44;;;;;;;6.30;3.60;;;;;;;25.93;34.48;101111.72;5236152;28;20572;-71
2022/07/20 01:22:15;;;;;;;7.13;3.17;;;;;;;26.01;33.08;101105.22;5235102;28;20441;-71
2022/07/20 01:24:46;;;;;;;8.10;3.13;;;;;;;25.87;33.62;101104.56;5235445;28;20520;-71
2022/07/20 01:27:18;;;;;;;11.10;3.70;;;;;;;25.89;33.54;101105.16;5236396;28;20021;-71
2022/07/20 01:29:49;;;;;;;8.43;3.80;;;;;;;25.83;33.88;101098.00;5235384;28;20037;-71
2022/07/20 01:32:20;;;;;;;8.80;3.20;;;;;;;25.77;34.48;101098.88;5234073;28;20049;-71
2022/07/20 01:34:52;;;;;;;9.17;3.43;;;;;;;25.67;34.22;101094.84;5235111;28;20029;-71
2022/07/20 01:37:23;;;;;;;7.50;3.30;;;;;;;25.66;34.64;101097.78;5235746;28;20072;-70
2022/07/20 01:39:54;;;;;;;7.77;3.40;;;;;;;25.64;34.10;101089.09;5235377;28;20044;-70
2022/07/20 01:42:26;;;;;;;6.90;3.50;;;;;;;25.64;33.82;101097.97;5236302;28;20035;-70
2022/07/20 01:44:57;;;;;;;7.33;3.40;;;;;;;25.61;34.29;101084.19;5235599;28;20112;-71
2022/07/20 01:47:28;;;;;;;5.87;3.33;;;;;;;25.52;34.46;101090.91;5235881;28;20032;-75
2022/07/20 01:50:00;;;;;;;8.50;3.80;;;;;;;25.50;34.57;101095.69;5236250;28;20155;-72
2022/07/20 01:52:31;;;;;;;9.43;3.43;;;;;;;25.45;35.16;101101.69;5236041;28;20100;-72
2022/07/20 01:55:04;;;;;;;8.50;3.40;;;;;;;25.45;35.76;101107.06;5236078;28;20029;-72
2022/07/20 01:57:35;;;;;;;;;;;;;;;26.05;34.58;101112.59;5235820;28;20034;-71
2022/07/20 02:00:09;;;;;;;8.20;3.53;;;;;;;25.22;36.28;101115.75;5234204;28;19921;-72
2022/07/20 02:02:41;;;;;;;9.52;3.88;;;;;;;25.09;36.31;101137.28;5232657;28;20132;-72
2022/07/20 02:05:12;;;;;;;5.87;3.47;;;;;;;25.26;34.64;101151.81;5235662;28;20034;-72
2022/07/20 02:07:44;;;;;;;10.23;3.83;;;;;;;25.22;35.08;101155.97;5233940;28;20030;-72
2022/07/20 02:10:16;;;;;;;9.70;3.58;;;;;;;25.21;35.36;101162.38;5234500;28;20037;-72
2022/07/20 02:12:47;;;;;;;6.87;3.50;;;;;;;25.19;35.67;101162.59;5234391;28;20021;-74
2022/07/20 02:18:11;;;;;;;11.05;4.97;;;;;;;25.10;37.88;101149.69;5234585;28;20112;-76
2022/07/20 02:20:42;;;;;;;11.80;6.28;;;;;;;25.02;38.72;101156.09;5234082;28;20159;-73
2022/07/20 02:23:13;;;;;;;10.37;5.73;;;;;;;24.97;38.98;101156.75;5234091;28;20112;-74
2022/07/20 02:25:45;;;;;;;10.13;6.37;;;;;;;24.92;39.90;101159.25;5234510;28;20618;-74
2022/07/20 02:28:16;;;;;;;8.53;6.60;;;;;;;24.88;40.83;101159.91;5234231;28;20030;-73
2022/07/20 02:30:47;;;;;;;14.33;6.73;;;;;;;24.83;41.26;101159.75;5233652;28;20029;-73
2022/07/20 02:33:19;;;;;;;15.50;8.17;;;;;;;24.80;42.55;101152.97;5232145;28;20034;-73
2022/07/20 02:35:50;;;;;;;13.90;7.90;;;;;;;24.75;43.14;101147.44;5233692;28;20475;-72
2022/07/20 02:38:22;;;;;;;13.53;8.50;;;;;;;24.69;44.38;101159.00;5233209;28;20037;-70
2022/07/20 02:40:53;;;;;;;11.77;9.40;;;;;;;24.64;45.18;101156.16;5234421;28;20052;-72
2022/07/20 02:43:25;;;;;;;13.13;10.73;;;;;;;24.60;47.63;101171.03;5233875;28;20121;-70
2022/07/20 02:45:56;;;;;;;16.43;11.10;;;;;;;24.61;49.21;101162.75;5234893;28;20117;-70
2022/07/20 02:48:27;;;;;;;19.70;12.57;;;;;;;24.52;50.63;101164.06;5233344;28;20470;-70
2022/07/20 02:50:59;;;;;;;18.37;12.23;;;;;;;24.52;52.52;101164.06;5233775;28;20526;-70
2022/07/20 02:53:30;;;;;;;22.87;13.67;;;;;;;24.46;53.67;101164.91;5232076;28;20145;-70
2022/07/20 02:56:01;;;;;;;20.27;14.70;;;;;;;24.42;54.57;101148.44;5233070;28;20080;-70
2022/07/20 02:58:33;;;;;;;20.23;13.57;;;;;;;24.40;55.62;101157.75;5232945;28;20108;-72
2022/07/20 03:01:04;;;;;;;21.63;14.47;;;;;;;24.36;56.86;101168.03;5234740;28;20036;-74
2022/07/20 03:03:36;;;;;;;19.43;14.20;;;;;;;24.38;57.25;101170.47;5234338;28;20033;-72
2022/07/20 03:06:07;;;;;;;19.33;14.60;;;;;;;24.25;59.36;101180.22;5232159;28;20025;-73
2022/07/20 03:08:38;;;;;;;22.40;15.27;;;;;;;24.23;59.34;101171.56;5232820;28;20083;-71
2022/07/20 03:11:10;;;;;;;21.73;15.73;;;;;;;24.13;60.76;101170.38;5232237;28;20025;-71
2022/07/20 03:13:41;;;;;;;21.23;15.80;;;;;;;24.10;62.94;101160.94;5234162;28;20132;-71
2022/07/20 03:16:12;;;;;;;23.83;16.53;;;;;;;24.10;62.78;101149.41;5231985;28;20119;-71
2022/07/20 03:18:44;;;;;;;21.57;17.03;;;;;;;24.04;61.50;101159.09;5234636;28;20041;-71
2022/07/20 03:21:15;;;;;;;21.27;17.90;;;;;;;24.02;64.59;101164.66;5232003;28;20363;-71
2022/07/20 03:23:47;;;;;;;22.37;17.30;;;;;;;23.95;65.93;101174.56;5231180;28;20018;-71
2022/07/20 03:26:19;;;;;;;27.73;18.47;;;;;;;23.98;65.83;101187.53;5234300;28;20132;-72
2022/07/20 03:28:50;;;;;;;24.80;17.95;;;;;;;23.95;65.70;101190.63;5233326;28;20037;-72
2022/07/20 03:31:22;;;;;;;25.50;18.30;;;;;;;23.85;68.06;101195.56;5232478;28;20164;-72
2022/07/20 03:33:53;;;;;;;31.37;19.70;;;;;;;23.90;66.27;101202.97;5234254;28;20116;-72
2022/07/20 03:36:24;;;;;;;23.63;19.17;;;;;;;23.85;66.68;101205.47;5233952;28;20037;-72
2022/07/20 03:38:55;;;;;;;22.60;18.40;;;;;;;23.84;68.87;101210.00;5231454;28;20039;-72
2022/07/20 03:41:27;;;;;;;26.93;18.70;;;;;;;23.82;69.98;101212.03;5233333;28;20066;-72
2022/07/20 03:43:58;;;;;;;30.77;19.90;;;;;;;23.79;69.47;101217.84;5232618;28;20021;-71
2022/07/20 03:46:29;;;;;;;28.43;19.60;;;;;;;23.76;71.59;101226.28;5233741;28;20105;-71
2022/07/20 03:49:01;;;;;;;24.80;20.53;;;;;;;23.75;70.93;101229.97;5233094;28;20056;-71
2022/07/20 03:51:32;;;;;;;29.17;21.47;;;;;;;23.65;73.43;101235.72;5232516;28;20034;-72
2022/07/20 03:54:05;;;;;;;24.10;20.87;;;;;;;23.65;73.39;101242.91;5231974;28;20037;-71
2022/07/20 03:56:42;;;;;;;31.38;21.38;;;;;;;23.58;74.66;101247.44;5233883;28;20030;-71
2022/07/20 03:59:14;;;;;;;31.95;21.30;;;;;;;23.53;74.96;101254.22;5233524;28;20071;-71
2022/07/20 04:01:45;;;;;;;25.83;22.00;;;;;;;23.54;75.55;101255.88;5231525;28;20029;-71
2022/07/20 04:04:16;;;;;;;26.33;21.43;;;;;;;23.58;74.31;101258.97;5230913;28;20112;-71
2022/07/20 04:06:48;;;;;;;25.37;20.43;;;;;;;23.58;73.62;101263.50;5231182;28;20077;-70
2022/07/20 04:09:43;;;;;;;27.30;21.00;;;;;;;23.60;73.97;101262.28;5233403;28;20021;-70
2022/07/20 04:12:18;;;;;;;23.63;21.05;;;;;;;23.59;74.29;101273.16;5232704;28;20487;-74
2022/07/20 04:14:51;;;;;;;26.55;21.92;;;;;;;23.51;75.01;101261.63;5232001;28;20052;-74
2022/07/20 04:17:23;;;;;;;23.13;20.00;;;;;;;23.53;73.89;101259.59;5231727;28;20149;-74
2022/07/20 04:19:54;;;;;;;27.57;20.03;;;;;;;23.54;75.33;101271.09;5233785;28;20706;-75
2022/07/20 04:22:26;;;;;;;27.40;20.10;;;;;;;23.55;73.91;101270.88;5233480;28;20113;-76
2022/07/20 04:24:57;;;;;;;24.73;19.63;;;;;;;23.60;72.98;101272.97;5232594;28;20065;-70
2022/07/20 04:27:28;;;;;;;23.67;19.90;;;;;;;23.64;72.67;101278.69;5234270;28;20028;-75
2022/07/20 04:30:00;;;;;;;26.20;21.53;;;;;;;23.72;73.07;101291.94;5232295;28;20029;-75
2022/07/20 04:32:31;;;;;;;27.70;19.77;;;;;;;23.67;74.03;101286.34;5231841;28;20044;-73
2022/07/20 04:35:03;;;;;;;27.77;19.97;;;;;;;23.72;72.46;101284.72;5233953;28;20069;-72
2022/07/20 04:37:35;;;;;;;28.90;19.85;;;;;;;23.71;73.40;101290.25;5233113;28;20033;-75
2022/07/20 04:40:07;;;;;;;23.20;19.60;;;;;;;23.72;72.14;101294.59;5233529;28;20029;-72
2022/07/20 04:42:39;;;;;;;24.48;18.55;;;;;;;23.74;72.02;101293.34;5236164;28;20041;-72
2022/07/20 04:45:10;;;;;;;25.40;19.40;;;;;;;23.78;72.55;101305.28;5237478;28;20475;-72
2022/07/20 04:47:41;;;;;;;22.53;18.17;;;;;;;23.83;71.67;101307.34;5236137;28;20029;-73
2022/07/20 04:50:13;;;;;;;19.50;17.20;;;;;;;23.85;71.15;101313.31;5236611;28;20083;-73
2022/07/20 04:52:44;;;;;;;25.30;18.20;;;;;;;23.82;71.34;101307.56;5236130;28;20052;-72
2022/07/20 04:55:16;;;;;;;19.80;17.70;;;;;;;23.85;70.23;101315.16;5236950;28;20022;-74
2022/07/20 04:57:47;;;;;;;24.37;18.70;;;;;;;23.86;69.82;101312.28;5234790;28;20079;-72
2022/07/20 05:00:18;;;;;;;22.03;17.47;;;;;;;23.83;69.83;101309.19;5236790;28;20040;-73
2022/07/20 05:02:49;;;;;;;22.03;17.37;;;;;;;23.86;69.46;101322.16;5236681;28;20052;-71
2022/07/20 05:05:21;;;;;;;20.00;16.20;;;;;;;23.85;69.67;101302.59;5235032;28;20033;-72
2022/07/20 05:07:52;;;;;;;21.70;16.57;;;;;;;23.85;69.36;101304.47;5236723;28;20036;-71
2022/07/20 05:10:23;;;;;;;21.83;16.67;;;;;;;23.82;70.28;101304.88;5233575;28;20036;-72
2022/07/20 05:12:55;;;;;;;22.53;17.20;;;;;;;23.84;69.88;101300.97;5236355;28;20021;-71
2022/07/20 05:15:26;;;;;;;24.10;17.03;;;;;;;23.84;70.38;101302.81;5235899;28;20057;-72
2022/07/20 05:17:57;;;;;;;22.27;17.07;;;;;;;23.83;71.29;101319.88;5236285;28;20533;-72
2022/07/20 05:20:29;;;;;;;21.63;16.17;;;;;;;23.88;69.52;101315.59;5234681;28;20602;-72
2022/07/20 05:23:00;;;;;;;21.93;16.07;;;;;;;23.89;69.90;101319.91;5233605;28;20018;-72
2022/07/20 05:25:31;;;;;;;22.77;15.87;;;;;;;23.86;70.38;101327.50;5236189;28;20040;-72
2022/07/20 05:28:03;;;;;;;21.87;17.53;;;;;;;23.92;70.20;101337.41;5236552;28;20433;-72
2022/07/20 05:30:34;;;;;;;17.30;15.50;;;;;;;23.93;70.88;101341.72;5233928;28;20391;-73
2022/07/20 05:33:06;;;;;;;18.87;15.60;;;;;;;23.95;68.92;101353.06;5235576;28;20071;-75
2022/07/20 05:35:37;;;;;;;19.07;16.00;;;;;;;23.98;68.91;101355.28;5235209;28;20035;-74
2022/07/20 05:38:08;;;;;;;21.50;15.53;;;;;;;24.02;69.95;101357.38;5233716;28;20628;-74
2022/07/20 05:40:40;;;;;;;20.80;15.47;;;;;;;24.03;68.17;101361.69;5235580;28;20033;-74
2022/07/20 05:43:11;;;;;;;20.47;16.07;;;;;;;24.03;68.74;101369.72;5234700;28;20049;-74
2022/07/20 05:45:43;;;;;;;20.70;15.03;;;;;;;24.09;67.60;101385.97;5236214;28;20026;-73
2022/07/20 05:48:15;;;;;;;20.23;14.50;;;;;;;24.17;66.56;101378.59;5235267;28;20033;-72
2022/07/20 05:50:46;;;;;;;18.08;13.70;;;;;;;24.22;65.56;101389.47;5235558;28;20079;-72
2022/07/20 05:53:18;;;;;;;17.37;12.53;;;;;;;24.32;65.25;101391.75;5235091;28;20021;-72
2022/07/20 05:55:49;;;;;;;19.07;13.17;;;;;;;24.35;64.86;101396.66;5234815;28;20460;-72
2022/07/20 05:58:21;;;;;;;19.70;12.97;;;;;;;24.44;64.39;101400.00;5236540;28;20491;-72
2022/07/20 06:00:52;;;;;;;17.07;12.67;;;;;;;24.50;65.74;101408.00;5235836;28;20029;-75
2022/07/20 06:03:23;;;;;;;19.83;13.80;;;;;;;24.50;63.13;101421.41;5233188;28;20021;-73
2022/07/20 06:05:54;;;;;;;19.03;13.10;;;;;;;24.54;62.92;101426.34;5233363;28;20059;-74
2022/07/20 06:08:26;;;;;;;20.03;12.67;;;;;;;24.55;63.33;101431.53;5236240;28;20033;-73
2022/07/20 06:10:57;;;;;;;14.17;12.60;;;;;;;24.58;64.32;101431.06;5235180;28;20036;-73
2022/07/20 06:13:28;;;;;;;15.93;12.80;;;;;;;24.59;63.56;101423.88;5232833;28;20021;-73
2022/07/20 06:16:00;;;;;;;17.43;11.37;;;;;;;24.64;63.17;101456.22;5235428;28;20305;-72
2022/07/20 06:18:31;;;;;;;17.27;11.80;;;;;;;24.61;63.68;101452.09;5234555;28;20030;-73
2022/07/20 06:21:02;;;;;;;13.33;11.43;;;;;;;24.68;63.42;101452.09;5234665;28;20377;-72
2022/07/20 06:23:34;;;;;;;16.30;11.90;;;;;;;24.71;62.78;101467.75;5233958;28;20112;-73
2022/07/20 06:26:05;;;;;;;14.70;11.03;;;;;;;24.75;62.71;101464.44;5234518;28;20041;-73
2022/07/20 06:28:36;;;;;;;17.77;12.27;;;;;;;24.84;61.83;101489.16;5227317;28;20033;-73
2022/07/20 06:31:08;;;;;;;14.50;12.07;;;;;;;24.80;62.10;101481.75;5234074;28;20061;-74
2022/07/20 06:33:39;;;;;;;19.07;12.37;;;;;;;24.84;62.18;101496.38;5233836;28;20033;-73
2022/07/20 06:36:10;;;;;;;18.77;10.83;;;;;;;24.83;62.66;101505.47;5234787;28;20040;-73
2022/07/20 06:38:42;;;;;;;16.30;10.60;;;;;;;24.87;60.60;101512.88;5235478;28;20060;-72
2022/07/20 06:41:13;;;;;;;21.37;11.80;;;;;;;24.71;61.60;101514.13;5234255;28;20051;-72
2022/07/20 06:43:44;;;;;;;16.00;12.27;;;;;;;24.72;61.98;101517.63;5233341;28;20087;-71
2022/07/20 06:46:16;;;;;;;16.77;11.53;;;;;;;24.74;62.02;101527.13;5232448;28;20132;-70
2022/07/20 06:48:47;;;;;;;16.53;11.07;;;;;;;24.70;62.64;101530.41;5232603;28;20083;-69
2022/07/20 06:51:18;;;;;;;17.80;11.30;;;;;;;24.71;62.55;101532.06;5234215;28;20457;-70
2022/07/20 06:53:50;;;;;;;13.43;10.50;;;;;;;24.71;62.87;101532.06;5231826;28;20084;-69
2022/07/20 06:56:21;;;;;;;14.13;11.03;;;;;;;24.65;62.06;101533.72;5231708;28;20381;-70
2022/07/20 06:58:53;;;;;;;16.90;10.27;;;;;;;24.70;62.23;101544.66;5230991;28;20029;-71
2022/07/20 07:01:24;;;;;;;17.37;11.67;;;;;;;24.75;61.36;101552.06;5234812;28;20069;-70
2022/07/20 07:03:55;;;;;;;19.93;10.90;;;;;;;24.80;62.37;101543.41;5232882;28;20029;-69
2022/07/20 07:06:28;;;;;;;17.50;10.80;;;;;;;24.81;61.29;101553.91;5232818;28;20548;-69
2022/07/20 07:09:00;;;;;;;16.20;10.70;;;;;;;24.81;61.53;101547.72;5233326;28;20120;-69
2022/07/20 07:11:31;;;;;;;17.37;10.90;;;;;;;24.85;61.62;101540.91;5235035;28;20035;-70
2022/07/20 07:14:03;;;;;;;14.43;10.60;;;;;;;24.95;61.71;101519.88;5234162;28;20095;-69
2022/07/20 07:16:35;;;;;;;14.90;10.60;;;;;;;25.07;61.95;101523.56;5233924;28;20025;-71
2022/07/20 07:19:06;;;;;;;17.87;11.47;;;;;;;25.21;62.86;101527.06;5228589;28;20035;-71
2022/07/20 07:21:37;;;;;;;16.03;11.13;;;;;;;25.48;60.12;101527.81;5224491;28;20033;-71
2022/07/20 07:24:09;;;;;;;18.07;11.60;;;;;;;25.59;58.92;101534.38;5226237;28;20164;-71
2022/07/20 07:26:40;;;;;;;16.30;10.17;;;;;;;25.77;58.49;101547.94;5229490;28;20035;-71
2022/07/20 07:29:11;;;;;;;17.50;10.27;;;;;;;25.85;58.11;101555.75;5231175;28;20379;-69
2022/07/20 07:31:43;;;;;;;14.10;9.87;;;;;;;25.92;57.47;101561.94;5229621;28;20064;-70
2022/07/20 07:34:14;;;;;;;15.57;10.53;;;;;;;25.98;55.77;101565.59;5232851;28;20061;-70
2022/07/20 07:36:46;;;;;;;16.27;9.37;;;;;;;26.15;56.96;101568.63;5231966;28;20064;-70
2022/07/20 07:39:17;;;;;;;12.70;9.23;;;;;;;26.16;55.63;101573.75;5227608;28;20037;-70
2022/07/20 07:41:48;;;;;;;12.10;9.07;;;;;;;26.33;55.56;101574.09;5216966;28;20068;-69
2022/07/20 07:44:20;;;;;;;16.97;9.37;;;;;;;26.47;55.37;101582.91;5226546;28;20473;-70
2022/07/20 07:46:51;;;;;;;12.10;8.93;;;;;;;26.65;56.11;101592.91;5230121;28;20029;-71
2022/07/20 07:49:22;;;;;;;15.13;9.27;;;;;;;26.83;55.19;101602.91;5233704;28;20059;-71
2022/07/20 07:51:54;;;;;;;12.90;9.00;;;;;;;26.89;54.04;101607.38;5229791;28;20128;-72
2022/07/20 07:54:25;;;;;;;12.53;8.67;;;;;;;26.92;53.42;101598.88;5230397;28;20585;-72
2022/07/20 07:56:56;;;;;;;11.10;9.03;;;;;;;26.95;51.48;101595.75;5231516;28;20387;-72
2022/07/20 07:59:28;;;;;;;13.47;8.57;;;;;;;27.13;50.99;101595.81;5230089;28;20494;-72
2022/07/20 08:02:00;;;;;;;12.85;8.18;;;;;;;27.13;50.84;101597.69;5232533;28;20033;-72
2022/07/20 08:04:32;;;;;;;14.35;8.00;;;;;;;27.26;49.29;101585.97;5232566;28;20037;-72
2022/07/20 08:07:03;;;;;;;17.03;7.93;;;;;;;27.48;49.20;101575.59;5233204;28;20044;-72
2022/07/20 08:09:34;;;;;;;13.30;7.63;;;;;;;27.50;47.72;101581.56;5234117;28;20033;-74
2022/07/20 08:12:06;;;;;;;13.80;7.77;;;;;;;27.58;47.52;101549.81;5231267;28;20071;-72
2022/07/20 08:14:37;;;;;;;15.63;7.53;;;;;;;27.89;48.00;101554.19;5232474;28;20033;-73
2022/07/20 08:17:09;;;;;;;12.77;8.63;;;;;;;27.84;47.43;101547.81;5235837;28;20033;-72
2022/07/20 08:19:40;;;;;;;9.83;7.17;;;;;;;27.89;47.11;101556.88;5233920;28;20112;-71
2022/07/20 08:22:12;;;;;;;8.68;7.68;;;;;;;27.83;47.80;101557.78;5237733;28;20028;-71
2022/07/20 08:24:43;;;;;;;11.53;7.90;;;;;;;27.86;47.94;101561.91;5231409;28;20067;-72
2022/07/20 08:27:15;;;;;;;14.50;7.43;;;;;;;27.90;47.35;101555.00;5233591;28;20051;-71
2022/07/20 08:29:47;;;;;;;11.57;8.67;;;;;;;27.77;48.41;101566.78;5231620;28;20017;-71
2022/07/20 08:32:19;;;;;;;13.90;8.40;;;;;;;27.88;48.59;101581.31;5226915;28;20036;-71
2022/07/20 08:34:51;;;;;;;13.63;8.60;;;;;;;27.99;46.00;101593.19;5232294;28;20475;-71
2022/07/20 08:37:22;;;;;;;14.68;8.35;;;;;;;28.16;47.17;101596.09;5232436;28;20056;-71
2022/07/20 08:39:53;;;;;;;12.43;7.97;;;;;;;28.19;46.35;101596.47;5237977;28;20048;-71
2022/07/20 08:42:25;;;;;;;13.40;8.30;;;;;;;28.18;45.18;101610.97;5237413;28;20061;-70
2022/07/20 08:44:56;;;;;;;11.85;7.85;;;;;;;28.31;45.56;101610.78;5236151;28;20040;-72
2022/07/20 08:47:35;;;;;;;12.13;8.40;;;;;;;28.16;46.75;101598.78;5233428;28;20084;-71
2022/07/20 08:50:07;;;;;;;15.50;8.38;;;;;;;28.25;46.45;101589.31;5233069;28;20613;-71
2022/07/20 08:52:38;;;;;;;11.73;8.38;;;;;;;28.36;45.33;101588.53;5234462;28;20049;-70
2022/07/20 08:55:10;;;;;;;13.17;8.33;;;;;;;28.38;46.64;101593.75;5237715;28;20108;-70
2022/07/20 08:57:44;;;;;;;15.60;8.00;;;;;;;28.51;45.42;101580.06;5231347;28;20262;-70
2022/07/20 09:00:16;;;;;;;10.82;8.18;;;;;;;28.37;46.05;101576.72;5235039;28;20034;-70
2022/07/20 09:03:01;;;;;;;9.93;7.75;;;;;;;28.54;45.53;101549.94;5232140;28;20029;-70
2022/07/20 09:05:37;;;;;;;14.02;8.63;;;;;;;28.16;46.34;101543.03;5235161;28;20038;-69
2022/07/20 09:08:18;;;;;;;12.43;8.32;;;;;;;28.25;47.06;101565.06;5231279;28;20367;-69
2022/07/20 09:10:51;;;;;;;14.00;9.23;;;;;;;28.07;46.59;101596.44;5233282;28;20029;-71
2022/07/20 09:13:28;;;;;;;11.73;8.50;;;;;;;28.08;47.30;101599.94;5233694;28;20029;-71
2022/07/20 09:16:01;;;;;;;11.60;8.15;;;;;;;28.14;46.74;101594.44;5236606;28;20041;-71
2022/07/20 09:18:34;;;;;;;12.10;8.40;;;;;;;28.12;47.59;101645.03;5233897;28;20037;-71
2022/07/20 09:21:07;;;;;;;12.20;8.57;;;;;;;28.08;48.25;101667.28;5232199;28;20227;-71
2022/07/20 09:23:41;;;;;;;14.60;7.95;;;;;;;28.20;46.76;101686.19;5234171;28;20399;-70
2022/07/20 09:26:15;;;;;;;10.82;8.25;;;;;;;28.17;47.27;101682.06;5226794;28;20036;-70
2022/07/20 09:28:52;;;;;;;12.30;8.68;;;;;;;28.30;47.42;101691.88;5228868;28;20022;-70
2022/07/20 09:31:38;;;;;;;13.20;8.30;;;;;;;28.61;47.23;101678.19;5234437;28;20143;-71
2022/07/20 09:34:12;;;;;;;10.02;8.40;;;;;;;28.46;46.80;101669.69;5228587;28;20463;-70
2022/07/20 09:36:46;;;;;;;12.63;7.90;;;;;;;28.79;46.29;101653.03;5227846;28;20029;-71
2022/07/20 09:39:20;;;;;;;13.55;8.48;;;;;;;28.88;45.30;101658.91;5247565;28;20463;-71
2022/07/20 09:41:54;;;;;;;9.63;8.50;;;;;;;28.82;44.57;101657.13;5235519;28;20033;-70
2022/07/20 09:44:30;;;;;;;14.45;8.40;;;;;;;29.03;45.37;101655.78;5234072;28;20029;-70
2022/07/20 09:47:11;;;;;;;14.13;9.23;;;;;;;29.36;45.37;101662.47;5233458;28;20041;-69
2022/07/20 09:49:42;;;;;;;14.60;8.25;;;;;;;29.36;44.49;101659.75;5231846;28;20029;-69
2022/07/20 09:52:14;;;;;;;11.73;8.33;;;;;;;29.59;42.78;101654.41;5234765;28;20032;-69
2022/07/20 09:54:45;;;;;;;14.03;8.17;;;;;;;29.98;43.17;101638.44;5232049;28;20030;-69
2022/07/20 09:57:20;;;;;;;9.20;7.50;;;;;;;30.05;41.38;101628.31;5233132;28;20184;-69
2022/07/20 09:59:52;;;;;;;11.98;7.28;;;;;;;30.19;40.99;101632.41;5234950;28;20041;-70
2022/07/20 10:02:24;;;;;;;8.50;6.82;;;;;;;30.29;41.07;101642.56;5234491;28;20029;-70
2022/07/20 10:04:56;;;;;;;;;;;;;;;30.88;39.28;101636.84;5234848;28;20014;-70
2022/07/20 10:07:29;;;;;;;13.02;6.95;;;;;;;30.01;40.52;101655.00;5230061;28;19932;-70
2022/07/20 10:10:01;;;;;;;10.75;6.50;;;;;;;29.97;41.66;101655.72;5231361;28;20029;-70
2022/07/20 10:12:33;;;;;;;13.07;7.05;;;;;;;29.95;40.30;101669.44;5234833;28;20090;-70
2022/07/20 10:15:10;;;;;;;10.27;7.18;;;;;;;30.12;41.20;101671.38;5233930;28;20034;-70
2022/07/20 10:17:44;;;;;;;9.43;6.82;;;;;;;30.03;40.37;101669.06;5234448;28;20031;-70
2022/07/20 10:20:29;;;;;;;9.35;7.15;;;;;;;30.52;40.47;101655.16;5231976;28;20961;-70
2022/07/20 10:23:16;;;;;;;12.93;7.32;;;;;;;30.82;40.70;101649.47;5233181;28;20399;-71
2022/07/20 10:25:47;;;;;;;11.95;7.88;;;;;;;30.39;39.33;101633.84;5232530;28;20029;-71
2022/07/20 10:28:50;;;;;;;9.83;7.17;;;;;;;30.66;40.26;101642.97;5227396;28;21094;-70
2022/07/20 10:31:21;;;;;;;13.45;7.28;;;;;;;30.67;39.25;101636.47;5228625;28;20081;-72
2022/07/20 10:33:53;;;;;;;12.30;6.67;;;;;;;30.76;38.95;101635.06;5229445;28;20660;-73
2022/07/20 10:36:42;;;;;;;8.87;6.03;;;;;;;30.83;38.48;101642.16;5232460;28;20232;-73
2022/07/20 10:39:44;;;;;;;10.57;5.60;;;;;;;31.04;37.55;101638.72;5229493;28;20915;-71
2022/07/20 10:42:34;;;;;;;9.68;6.30;;;;;;;30.85;38.70;101632.75;5230569;28;20044;-72
2022/07/20 10:45:11;;;;;;;11.20;6.13;;;;;;;30.92;39.50;101633.41;5231728;28;20029;-75
2022/07/20 10:47:58;;;;;;;10.45;6.32;;;;;;;31.18;38.65;101631.91;5232103;28;20136;-71
2022/07/20 10:50:31;;;;;;;7.60;6.03;;;;;;;31.04;37.31;101635.19;5231200;28;20363;-75
2022/07/20 10:53:26;;;;;;;8.40;5.72;;;;;;;31.42;37.66;101637.94;5231625;28;20080;-72
2022/07/20 10:55:59;;;;;;;9.40;6.30;;;;;;;31.08;37.95;101631.75;5227446;28;20053;-73
2022/07/20 10:58:36;;;;;;;9.32;6.25;;;;;;;31.05;36.86;101644.94;5228314;28;20497;-72
2022/07/20 11:01:12;;;;;;;8.07;5.97;;;;;;;31.31;37.70;101646.19;5228570;28;20083;-72
2022/07/20 11:03:48;;;;;;;10.13;5.93;;;;;;;31.65;37.33;101636.88;5227319;28;20555;-72
2022/07/20 11:06:22;;;;;;;8.40;5.93;;;;;;;31.60;38.51;101649.56;5227835;28;20104;-71
2022/07/20 11:08:57;;;;;;;9.48;6.00;;;;;;;31.72;37.34;101653.78;5231318;28;20112;-72
2022/07/20 11:11:34;;;;;;;11.02;5.40;;;;;;;31.90;36.71;101646.44;5230856;28;20030;-73
2022/07/20 11:14:09;;;;;;;9.43;6.00;;;;;;;31.68;36.12;101641.00;5231321;28;20039;-72
2022/07/20 11:16:41;;;;;;;9.77;6.28;;;;;;;31.65;35.83;101631.47;5231730;28;20033;-72
2022/07/20 11:19:12;;;;;;;10.40;5.70;;;;;;;31.89;36.42;101631.22;5233081;28;20337;-74
2022/07/20 11:21:44;;;;;;;13.60;6.93;;;;;;;32.03;35.45;101645.22;5227980;28;20829;-73
2022/07/20 11:24:26;;;;;;;12.20;6.43;;;;;;;32.17;35.35;101641.84;5229371;28;20059;-74
2022/07/20 11:27:13;;;;;;;11.45;6.95;;;;;;;32.43;35.17;101637.53;5229821;28;20107;-77
2022/07/20 11:29:46;;;;;;;12.95;6.30;;;;;;;32.36;37.20;101627.94;5230643;28;20021;-74
2022/07/20 11:32:19;;;;;;;15.43;6.65;;;;;;;32.44;35.22;101639.16;5229426;28;20045;-74
2022/07/20 11:34:53;;;;;;;12.80;5.63;;;;;;;32.60;35.44;101637.41;5230413;28;20052;-72
2022/07/20 11:37:25;;;;;;;6.97;4.72;;;;;;;32.65;34.56;101634.72;5229945;28;20029;-73
2022/07/20 11:39:56;;;;;;;8.52;5.10;;;;;;;32.75;34.48;101628.56;5237436;28;20086;-73
2022/07/20 11:42:28;;;;;;;7.05;5.05;;;;;;;32.76;34.36;101634.81;5238238;28;20021;-71
2022/07/20 11:45:00;;;;;;;;;;;;;;;33.62;33.76;101629.13;5236243;28;20542;-71
2022/07/20 11:47:33;;;;;;;7.32;4.93;;;;;;;33.05;34.72;101632.63;5235949;28;19940;-71